sensor_id;sensor_type;location;lat;lon;timestamp;P1;durP1;ratioP1;P2;durP2;ratioP2
43861;SDS011;29510;52.140;5.034;2023-02-05T00:07:56;11.77;;;6.60;;
43861;SDS011;29510;52.140;5.034;2023-02-05T00:17:57;9.63;;;6.30;;
43861;SDS011;29510;52.140;5.034;2023-02-05T00:27:58;12.25;;;7.28;;
43861;SDS011;29510;52.140;5.034;2023-02-05T00:37:59;9.90;;;5.97;;
43861;SDS011;29510;52.140;5.034;2023-02-05T00:48:01;13.93;;;5.93;;
43861;SDS011;29510;52.140;5.034;2023-02-05T00:58:02;10.40;;;6.63;;
43861;SDS011;29510;52.140;5.034;2023-02-05T01:08:04;11.55;;;5.95;;
43861;SDS011;29510;52.140;5.034;2023-02-05T01:18:06;10.20;;;6.22;;
43861;SDS011;29510;52.140;5.034;2023-02-05T01:28:08;10.52;;;5.70;;
43861;SDS011;29510;52.140;5.034;2023-02-05T01:38:09;11.30;;;5.03;;
43861;SDS011;29510;52.140;5.034;2023-02-05T01:48:14;9.20;;;4.80;;
43861;SDS011;29510;52.140;5.034;2023-02-05T01:58:15;11.27;;;4.75;;
43861;SDS011;29510;52.140;5.034;2023-02-05T02:08:16;7.38;;;4.35;;
43861;SDS011;29510;52.140;5.034;2023-02-05T02:18:17;10.52;;;5.20;;
43861;SDS011;29510;52.140;5.034;2023-02-05T02:28:27;7.35;;;3.88;;
43861;SDS011;29510;52.140;5.034;2023-02-05T02:38:36;6.13;;;3.10;;
43861;SDS011;29510;52.140;5.034;2023-02-05T02:48:44;5.55;;;3.30;;
43861;SDS011;29510;52.140;5.034;2023-02-05T02:58:52;3.22;;;1.83;;
43861;SDS011;29510;52.140;5.034;2023-02-05T03:09:03;3.85;;;2.67;;
43861;SDS011;29510;52.140;5.034;2023-02-05T03:19:15;7.03;;;2.45;;
43861;SDS011;29510;52.140;5.034;2023-02-05T03:29:18;1.90;;;1.13;;
43861;SDS011;29510;52.140;5.034;2023-02-05T04:00:19;2.25;;;0.80;;
43861;SDS011;29510;52.140;5.034;2023-02-05T04:10:20;2.45;;;1.17;;
43861;SDS011;29510;52.140;5.034;2023-02-05T04:20:21;11.52;;;1.65;;
43861;SDS011;29510;52.140;5.034;2023-02-05T04:30:22;3.05;;;1.50;;
43861;SDS011;29510;52.140;5.034;2023-02-05T04:40:23;4.05;;;1.58;;
43861;SDS011;29510;52.140;5.034;2023-02-05T04:50:24;3.00;;;1.40;;
43861;SDS011;29510;52.140;5.034;2023-02-05T05:00:25;1.95;;;0.85;;
43861;SDS011;29510;52.140;5.034;2023-02-05T05:10:27;1.27;;;0.40;;
43861;SDS011;29510;52.140;5.034;2023-02-05T05:20:28;1.90;;;0.88;;
43861;SDS011;29510;52.140;5.034;2023-02-05T05:30:29;1.23;;;0.40;;
43861;SDS011;29510;52.140;5.034;2023-02-05T05:40:30;1.38;;;0.60;;
43861;SDS011;29510;52.140;5.034;2023-02-05T05:50:50;1.67;;;0.32;;
43861;SDS011;29510;52.140;5.034;2023-02-05T06:00:52;6.72;;;1.63;;
43861;SDS011;29510;52.140;5.034;2023-02-05T06:10:54;1.92;;;1.08;;
43861;SDS011;29510;52.140;5.034;2023-02-05T06:20:55;1.58;;;0.90;;
43861;SDS011;29510;52.140;5.034;2023-02-05T06:30:56;1.88;;;0.70;;
43861;SDS011;29510;52.140;5.034;2023-02-05T06:40:57;1.40;;;0.35;;
43861;SDS011;29510;52.140;5.034;2023-02-05T06:50:58;2.83;;;0.60;;
43861;SDS011;29510;52.140;5.034;2023-02-05T07:01:00;2.33;;;0.52;;
43861;SDS011;29510;52.140;5.034;2023-02-05T07:11:01;7.28;;;1.73;;
43861;SDS011;29510;52.140;5.034;2023-02-05T07:21:06;6.72;;;1.52;;
43861;SDS011;29510;52.140;5.034;2023-02-05T07:31:09;3.53;;;1.20;;
43861;SDS011;29510;52.140;5.034;2023-02-05T07:41:14;4.38;;;1.55;;
43861;SDS011;29510;52.140;5.034;2023-02-05T07:51:19;3.63;;;1.65;;
43861;SDS011;29510;52.140;5.034;2023-02-05T08:01:22;13.30;;;2.27;;
43861;SDS011;29510;52.140;5.034;2023-02-05T08:11:23;4.95;;;1.13;;
43861;SDS011;29510;52.140;5.034;2023-02-05T08:21:25;16.50;;;3.05;;
43861;SDS011;29510;52.140;5.034;2023-02-05T08:31:26;9.88;;;2.47;;
43861;SDS011;29510;52.140;5.034;2023-02-05T08:41:27;17.15;;;3.08;;
43861;SDS011;29510;52.140;5.034;2023-02-05T08:51:28;12.25;;;2.45;;
43861;SDS011;29510;52.140;5.034;2023-02-05T09:01:30;4.25;;;1.27;;
43861;SDS011;29510;52.140;5.034;2023-02-05T09:11:31;5.75;;;2.80;;
43861;SDS011;29510;52.140;5.034;2023-02-05T09:21:32;9.60;;;2.70;;
43861;SDS011;29510;52.140;5.034;2023-02-05T09:31:34;4.50;;;2.05;;
43861;SDS011;29510;52.140;5.034;2023-02-05T09:41:36;7.53;;;2.80;;
43861;SDS011;29510;52.140;5.034;2023-02-05T09:51:52;5.90;;;1.85;;
43861;SDS011;29510;52.140;5.034;2023-02-05T10:01:59;10.20;;;3.17;;
43861;SDS011;29510;52.140;5.034;2023-02-05T10:32:54;17.85;;;4.47;;
43861;SDS011;29510;52.140;5.034;2023-02-05T10:43:03;4.53;;;1.97;;
43861;SDS011;29510;52.140;5.034;2023-02-05T10:53:20;9.70;;;2.47;;
43861;SDS011;29510;52.140;5.034;2023-02-05T11:03:22;10.10;;;2.58;;
43861;SDS011;29510;52.140;5.034;2023-02-05T11:13:24;3.75;;;1.25;;
43861;SDS011;29510;52.140;5.034;2023-02-05T11:23:27;4.60;;;1.50;;
43861;SDS011;29510;52.140;5.034;2023-02-05T11:33:31;7.80;;;2.95;;
43861;SDS011;29510;52.140;5.034;2023-02-05T11:43:48;5.70;;;2.17;;
43861;SDS011;29510;52.140;5.034;2023-02-05T11:53:54;8.95;;;2.60;;
43861;SDS011;29510;52.140;5.034;2023-02-05T12:04:02;5.15;;;2.10;;
43861;SDS011;29510;52.140;5.034;2023-02-05T12:14:18;18.93;;;3.23;;
43861;SDS011;29510;52.140;5.034;2023-02-05T12:55:41;2.40;;;0.88;;
43861;SDS011;29510;52.140;5.034;2023-02-05T13:05:45;19.30;;;2.47;;
43861;SDS011;29510;52.140;5.034;2023-02-05T13:16:05;4.43;;;2.08;;
43861;SDS011;29510;52.140;5.034;2023-02-05T13:26:10;4.57;;;1.40;;
43861;SDS011;29510;52.140;5.034;2023-02-05T13:47:08;9.80;;;1.98;;
43861;SDS011;29510;52.140;5.034;2023-02-05T14:07:50;6.10;;;2.17;;
43861;SDS011;29510;52.140;5.034;2023-02-05T14:17:51;8.52;;;2.63;;
43861;SDS011;29510;52.140;5.034;2023-02-05T14:27:54;8.70;;;2.67;;
43861;SDS011;29510;52.140;5.034;2023-02-05T14:37:58;8.10;;;2.08;;
43861;SDS011;29510;52.140;5.034;2023-02-05T14:48:01;6.00;;;2.28;;
43861;SDS011;29510;52.140;5.034;2023-02-05T14:58:04;6.93;;;2.63;;
43861;SDS011;29510;52.140;5.034;2023-02-05T15:18:19;6.22;;;2.30;;
43861;SDS011;29510;52.140;5.034;2023-02-05T15:28:28;18.38;;;2.75;;
43861;SDS011;29510;52.140;5.034;2023-02-05T15:38:34;7.68;;;3.00;;
43861;SDS011;29510;52.140;5.034;2023-02-05T15:48:43;7.40;;;3.17;;
43861;SDS011;29510;52.140;5.034;2023-02-05T15:58:46;16.65;;;3.55;;
43861;SDS011;29510;52.140;5.034;2023-02-05T16:08:50;12.48;;;4.07;;
43861;SDS011;29510;52.140;5.034;2023-02-05T16:18:53;10.35;;;3.63;;
43861;SDS011;29510;52.140;5.034;2023-02-05T16:29:02;8.13;;;3.05;;
43861;SDS011;29510;52.140;5.034;2023-02-05T16:39:05;6.75;;;3.05;;
43861;SDS011;29510;52.140;5.034;2023-02-05T16:59:23;22.23;;;4.17;;
43861;SDS011;29510;52.140;5.034;2023-02-05T17:09:30;7.32;;;2.35;;
43861;SDS011;29510;52.140;5.034;2023-02-05T17:19:38;6.10;;;2.10;;
43861;SDS011;29510;52.140;5.034;2023-02-05T17:29:39;6.03;;;2.08;;
43861;SDS011;29510;52.140;5.034;2023-02-05T17:39:41;9.88;;;3.08;;
43861;SDS011;29510;52.140;5.034;2023-02-05T17:49:42;5.32;;;2.47;;
43861;SDS011;29510;52.140;5.034;2023-02-05T17:59:43;6.70;;;2.55;;
43861;SDS011;29510;52.140;5.034;2023-02-05T18:09:44;19.60;;;3.45;;
43861;SDS011;29510;52.140;5.034;2023-02-05T18:19:45;8.80;;;2.80;;
43861;SDS011;29510;52.140;5.034;2023-02-05T18:29:46;8.00;;;3.20;;
43861;SDS011;29510;52.140;5.034;2023-02-05T18:39:47;7.15;;;3.15;;
43861;SDS011;29510;52.140;5.034;2023-02-05T18:49:50;15.68;;;3.78;;
43861;SDS011;29510;52.140;5.034;2023-02-05T18:59:51;7.03;;;3.33;;
43861;SDS011;29510;52.140;5.034;2023-02-05T19:09:53;8.00;;;2.95;;
43861;SDS011;29510;52.140;5.034;2023-02-05T19:19:55;9.57;;;3.10;;
43861;SDS011;29510;52.140;5.034;2023-02-05T19:29:57;7.93;;;3.53;;
43861;SDS011;29510;52.140;5.034;2023-02-05T19:39:58;8.82;;;2.67;;
43861;SDS011;29510;52.140;5.034;2023-02-05T19:50:01;6.28;;;2.90;;
43861;SDS011;29510;52.140;5.034;2023-02-05T20:00:03;6.82;;;2.72;;
43861;SDS011;29510;52.140;5.034;2023-02-05T20:10:04;15.88;;;2.97;;
43861;SDS011;29510;52.140;5.034;2023-02-05T20:20:06;6.28;;;2.63;;
43861;SDS011;29510;52.140;5.034;2023-02-05T20:30:08;10.75;;;2.88;;
43861;SDS011;29510;52.140;5.034;2023-02-05T20:40:30;9.38;;;2.92;;
43861;SDS011;29510;52.140;5.034;2023-02-05T20:50:32;7.25;;;2.95;;
43861;SDS011;29510;52.140;5.034;2023-02-05T21:00:33;6.72;;;2.90;;
43861;SDS011;29510;52.140;5.034;2023-02-05T21:10:34;5.45;;;1.38;;
43861;SDS011;29510;52.140;5.034;2023-02-05T21:20:35;4.75;;;2.17;;
43861;SDS011;29510;52.140;5.034;2023-02-05T21:30:36;7.22;;;3.13;;
43861;SDS011;29510;52.140;5.034;2023-02-05T21:40:38;7.18;;;2.63;;
43861;SDS011;29510;52.140;5.034;2023-02-05T21:50:39;8.13;;;2.65;;
43861;SDS011;29510;52.140;5.034;2023-02-05T22:00:40;6.72;;;3.47;;
43861;SDS011;29510;52.140;5.034;2023-02-05T22:10:41;4.20;;;2.10;;
43861;SDS011;29510;52.140;5.034;2023-02-05T22:20:42;9.35;;;2.83;;
43861;SDS011;29510;52.140;5.034;2023-02-05T22:30:43;8.65;;;2.97;;
43861;SDS011;29510;52.140;5.034;2023-02-05T22:40:44;9.07;;;2.80;;
43861;SDS011;29510;52.140;5.034;2023-02-05T22:50:46;7.05;;;2.40;;
43861;SDS011;29510;52.140;5.034;2023-02-05T23:00:47;5.30;;;2.42;;
43861;SDS011;29510;52.140;5.034;2023-02-05T23:10:48;5.05;;;2.50;;
43861;SDS011;29510;52.140;5.034;2023-02-05T23:20:49;3.65;;;2.00;;
43861;SDS011;29510;52.140;5.034;2023-02-05T23:30:50;16.30;;;3.53;;
43861;SDS011;29510;52.140;5.034;2023-02-05T23:40:52;3.97;;;1.88;;
43861;SDS011;29510;52.140;5.034;2023-02-05T23:50:54;8.23;;;2.85;;
